sensor_id;sensor_type;location;lat;lon;timestamp;P1;durP1;ratioP1;P2;durP2;ratioP2
36629;SDS011;36256;42.154;23.002;2023-04-24T18:04:22;3.08;;;1.27;;
36629;SDS011;36256;42.154;23.002;2023-04-24T18:06:51;2.03;;;1.20;;
36629;SDS011;36256;42.154;23.002;2023-04-24T18:09:18;3.33;;;1.58;;
36629;SDS011;36256;42.154;23.002;2023-04-24T18:11:46;3.25;;;1.50;;
36629;SDS011;36256;42.154;23.002;2023-04-24T18:14:15;3.22;;;1.63;;
36629;SDS011;36256;42.154;23.002;2023-04-24T18:16:41;7.13;;;1.92;;
36629;SDS011;36256;42.154;23.002;2023-04-24T18:19:08;4.47;;;1.75;;
36629;SDS011;36256;42.154;23.002;2023-04-24T18:21:35;6.00;;;2.17;;
36629;SDS011;36256;42.154;23.002;2023-04-24T18:24:01;10.07;;;2.15;;
36629;SDS011;36256;42.154;23.002;2023-04-24T18:26:28;2.65;;;1.70;;
36629;SDS011;36256;42.154;23.002;2023-04-24T18:28:55;4.23;;;1.63;;
36629;SDS011;36256;42.154;23.002;2023-04-24T18:31:21;11.95;;;3.78;;
36629;SDS011;36256;42.154;23.002;2023-04-24T18:33:48;19.10;;;6.72;;
36629;SDS011;36256;42.154;23.002;2023-04-24T18:36:15;32.97;;;11.55;;
36629;SDS011;36256;42.154;23.002;2023-04-24T18:38:42;32.20;;;11.45;;
36629;SDS011;36256;42.154;23.002;2023-04-24T18:43:36;11.57;;;6.38;;
36629;SDS011;36256;42.154;23.002;2023-04-24T18:46:02;6.90;;;4.05;;
36629;SDS011;36256;42.154;23.002;2023-04-24T18:48:29;5.30;;;3.83;;
36629;SDS011;36256;42.154;23.002;2023-04-24T18:50:56;9.70;;;4.00;;
36629;SDS011;36256;42.154;23.002;2023-04-24T18:53:23;5.95;;;3.90;;
36629;SDS011;36256;42.154;23.002;2023-04-24T18:55:49;7.97;;;3.90;;
36629;SDS011;36256;42.154;23.002;2023-04-24T18:58:16;5.72;;;3.30;;
36629;SDS011;36256;42.154;23.002;2023-04-24T19:00:43;5.97;;;3.35;;
36629;SDS011;36256;42.154;23.002;2023-04-24T19:03:10;5.70;;;2.72;;
36629;SDS011;36256;42.154;23.002;2023-04-24T19:05:37;5.03;;;3.00;;
36629;SDS011;36256;42.154;23.002;2023-04-24T19:08:03;6.53;;;3.33;;
36629;SDS011;36256;42.154;23.002;2023-04-24T19:10:30;7.03;;;3.95;;
36629;SDS011;36256;42.154;23.002;2023-04-24T19:12:59;4.85;;;3.60;;
36629;SDS011;36256;42.154;23.002;2023-04-24T19:15:27;7.35;;;3.50;;
36629;SDS011;36256;42.154;23.002;2023-04-24T19:17:55;4.43;;;3.38;;
36629;SDS011;36256;42.154;23.002;2023-04-24T19:20:22;7.55;;;2.80;;
36629;SDS011;36256;42.154;23.002;2023-04-24T19:22:49;7.65;;;3.00;;
36629;SDS011;36256;42.154;23.002;2023-04-24T19:25:16;5.13;;;2.97;;
36629;SDS011;36256;42.154;23.002;2023-04-24T19:27:43;4.13;;;2.90;;
36629;SDS011;36256;42.154;23.002;2023-04-24T19:30:09;4.38;;;2.72;;
36629;SDS011;36256;42.154;23.002;2023-04-24T19:32:36;3.90;;;2.95;;
36629;SDS011;36256;42.154;23.002;2023-04-24T19:35:03;4.00;;;3.40;;
36629;SDS011;36256;42.154;23.002;2023-04-24T19:37:30;5.78;;;2.85;;
36629;SDS011;36256;42.154;23.002;2023-04-24T19:39:59;6.72;;;3.53;;
36629;SDS011;36256;42.154;23.002;2023-04-24T19:45:08;4.85;;;3.28;;
36629;SDS011;36256;42.154;23.002;2023-04-24T19:47:36;4.22;;;3.70;;
36629;SDS011;36256;42.154;23.002;2023-04-24T19:50:04;6.05;;;3.80;;
36629;SDS011;36256;42.154;23.002;2023-04-24T19:54:58;4.55;;;2.85;;
36629;SDS011;36256;42.154;23.002;2023-04-24T19:57:24;4.63;;;3.15;;
36629;SDS011;36256;42.154;23.002;2023-04-24T19:59:51;4.03;;;3.20;;
36629;SDS011;36256;42.154;23.002;2023-04-24T20:02:18;6.28;;;2.55;;
36629;SDS011;36256;42.154;23.002;2023-04-24T20:04:44;4.82;;;2.80;;
36629;SDS011;36256;42.154;23.002;2023-04-24T20:07:12;3.85;;;3.25;;
36629;SDS011;36256;42.154;23.002;2023-04-24T20:09:38;3.40;;;2.78;;
36629;SDS011;36256;42.154;23.002;2023-04-24T20:12:05;4.32;;;3.05;;
36629;SDS011;36256;42.154;23.002;2023-04-24T20:14:32;3.75;;;3.28;;
36629;SDS011;36256;42.154;23.002;2023-04-24T20:16:58;3.30;;;2.93;;
36629;SDS011;36256;42.154;23.002;2023-04-24T20:19:25;9.38;;;5.65;;
36629;SDS011;36256;42.154;23.002;2023-04-24T20:21:52;16.13;;;10.27;;
36629;SDS011;36256;42.154;23.002;2023-04-24T20:24:19;9.63;;;5.80;;
36629;SDS011;36256;42.154;23.002;2023-04-24T20:26:46;7.50;;;4.03;;
36629;SDS011;36256;42.154;23.002;2023-04-24T20:29:13;4.53;;;2.83;;
36629;SDS011;36256;42.154;23.002;2023-04-24T20:31:39;4.13;;;2.53;;
36629;SDS011;36256;42.154;23.002;2023-04-24T20:36:33;4.93;;;2.28;;
36629;SDS011;36256;42.154;23.002;2023-04-24T20:39:00;3.15;;;1.73;;
36629;SDS011;36256;42.154;23.002;2023-04-24T20:41:27;2.90;;;2.17;;
36629;SDS011;36256;42.154;23.002;2023-04-24T20:43:55;3.80;;;3.15;;
36629;SDS011;36256;42.154;23.002;2023-04-24T20:46:22;3.72;;;2.78;;
36629;SDS011;36256;42.154;23.002;2023-04-24T20:48:48;2.78;;;2.03;;
36629;SDS011;36256;42.154;23.002;2023-04-24T20:51:16;3.60;;;2.40;;
36629;SDS011;36256;42.154;23.002;2023-04-24T20:53:44;2.13;;;1.80;;
36629;SDS011;36256;42.154;23.002;2023-04-24T20:56:11;2.10;;;1.80;;
36629;SDS011;36256;42.154;23.002;2023-04-24T20:58:37;2.70;;;1.73;;
36629;SDS011;36256;42.154;23.002;2023-04-24T21:01:05;2.33;;;1.60;;
36629;SDS011;36256;42.154;23.002;2023-04-24T21:03:31;3.28;;;2.10;;
36629;SDS011;36256;42.154;23.002;2023-04-24T21:05:59;2.42;;;2.20;;
36629;SDS011;36256;42.154;23.002;2023-04-24T21:08:25;3.80;;;2.65;;
36629;SDS011;36256;42.154;23.002;2023-04-24T21:10:52;4.93;;;2.30;;
36629;SDS011;36256;42.154;23.002;2023-04-24T21:13:18;2.05;;;1.85;;
36629;SDS011;36256;42.154;23.002;2023-04-24T21:15:45;2.07;;;1.80;;
36629;SDS011;36256;42.154;23.002;2023-04-24T21:18:12;3.08;;;2.47;;
36629;SDS011;36256;42.154;23.002;2023-04-24T21:20:38;6.43;;;3.50;;
36629;SDS011;36256;42.154;23.002;2023-04-24T21:23:05;7.05;;;4.10;;
36629;SDS011;36256;42.154;23.002;2023-04-24T21:25:32;4.82;;;2.80;;
36629;SDS011;36256;42.154;23.002;2023-04-24T21:28:00;2.63;;;2.00;;
36629;SDS011;36256;42.154;23.002;2023-04-24T21:30:28;2.40;;;2.00;;
36629;SDS011;36256;42.154;23.002;2023-04-24T21:32:55;15.65;;;8.55;;
36629;SDS011;36256;42.154;23.002;2023-04-24T21:35:22;9.55;;;5.35;;
36629;SDS011;36256;42.154;23.002;2023-04-24T21:37:49;7.63;;;4.10;;
36629;SDS011;36256;42.154;23.002;2023-04-24T21:40:15;6.60;;;3.80;;
36629;SDS011;36256;42.154;23.002;2023-04-24T21:42:42;10.18;;;4.38;;
36629;SDS011;36256;42.154;23.002;2023-04-24T21:45:09;13.70;;;7.93;;
36629;SDS011;36256;42.154;23.002;2023-04-24T21:47:36;7.60;;;5.00;;
36629;SDS011;36256;42.154;23.002;2023-04-24T21:50:03;12.32;;;7.18;;
36629;SDS011;36256;42.154;23.002;2023-04-24T21:52:30;13.55;;;6.55;;
36629;SDS011;36256;42.154;23.002;2023-04-24T21:54:57;5.27;;;3.90;;
36629;SDS011;36256;42.154;23.002;2023-04-24T21:57:23;14.02;;;7.13;;
36629;SDS011;36256;42.154;23.002;2023-04-24T21:59:50;29.23;;;12.95;;
36629;SDS011;36256;42.154;23.002;2023-04-24T22:02:17;8.27;;;5.80;;
36629;SDS011;36256;42.154;23.002;2023-04-24T22:04:44;12.93;;;7.40;;
36629;SDS011;36256;42.154;23.002;2023-04-24T22:07:11;8.65;;;4.28;;
36629;SDS011;36256;42.154;23.002;2023-04-24T22:09:38;7.90;;;4.47;;
36629;SDS011;36256;42.154;23.002;2023-04-24T22:12:04;8.00;;;5.50;;
36629;SDS011;36256;42.154;23.002;2023-04-24T22:14:31;6.10;;;4.30;;
36629;SDS011;36256;42.154;23.002;2023-04-24T22:16:58;5.63;;;4.00;;
36629;SDS011;36256;42.154;23.002;2023-04-24T22:19:25;6.05;;;4.15;;
36629;SDS011;36256;42.154;23.002;2023-04-24T22:21:53;9.15;;;5.15;;
36629;SDS011;36256;42.154;23.002;2023-04-24T22:24:20;7.90;;;4.95;;
36629;SDS011;36256;42.154;23.002;2023-04-24T22:26:46;5.43;;;4.80;;
36629;SDS011;36256;42.154;23.002;2023-04-24T22:29:13;5.20;;;4.38;;
36629;SDS011;36256;42.154;23.002;2023-04-24T22:31:40;5.63;;;4.28;;
36629;SDS011;36256;42.154;23.002;2023-04-24T22:34:07;7.00;;;4.53;;
36629;SDS011;36256;42.154;23.002;2023-04-24T22:36:34;6.88;;;4.57;;
36629;SDS011;36256;42.154;23.002;2023-04-24T22:39:00;5.43;;;4.57;;
36629;SDS011;36256;42.154;23.002;2023-04-24T22:41:27;5.72;;;3.83;;
36629;SDS011;36256;42.154;23.002;2023-04-24T22:43:54;7.60;;;4.55;;
36629;SDS011;36256;42.154;23.002;2023-04-24T22:46:21;5.25;;;3.83;;
36629;SDS011;36256;42.154;23.002;2023-04-24T22:48:50;5.22;;;3.58;;
36629;SDS011;36256;42.154;23.002;2023-04-24T22:51:16;7.32;;;4.15;;
36629;SDS011;36256;42.154;23.002;2023-04-24T22:53:43;4.35;;;3.78;;
36629;SDS011;36256;42.154;23.002;2023-04-24T22:56:10;5.15;;;3.80;;
36629;SDS011;36256;42.154;23.002;2023-04-24T22:58:37;4.90;;;3.75;;
36629;SDS011;36256;42.154;23.002;2023-04-24T23:01:03;5.47;;;3.65;;
36629;SDS011;36256;42.154;23.002;2023-04-24T23:03:31;4.47;;;3.85;;
36629;SDS011;36256;42.154;23.002;2023-04-24T23:05:58;5.15;;;3.90;;
36629;SDS011;36256;42.154;23.002;2023-04-24T23:08:25;6.37;;;4.00;;
36629;SDS011;36256;42.154;23.002;2023-04-24T23:10:51;4.30;;;3.72;;
36629;SDS011;36256;42.154;23.002;2023-04-24T23:13:18;7.33;;;4.37;;
36629;SDS011;36256;42.154;23.002;2023-04-24T23:15:44;4.20;;;3.80;;
36629;SDS011;36256;42.154;23.002;2023-04-24T23:18:11;6.00;;;4.37;;
36629;SDS011;36256;42.154;23.002;2023-04-24T23:20:38;6.22;;;4.35;;
36629;SDS011;36256;42.154;23.002;2023-04-24T23:23:05;6.75;;;4.30;;
36629;SDS011;36256;42.154;23.002;2023-04-24T23:25:31;7.80;;;4.60;;
36629;SDS011;36256;42.154;23.002;2023-04-24T23:27:58;6.13;;;4.87;;
36629;SDS011;36256;42.154;23.002;2023-04-24T23:30:24;9.47;;;5.17;;
36629;SDS011;36256;42.154;23.002;2023-04-24T23:32:52;4.90;;;4.40;;
36629;SDS011;36256;42.154;23.002;2023-04-24T23:35:18;6.97;;;5.15;;
36629;SDS011;36256;42.154;23.002;2023-04-24T23:37:45;8.70;;;5.35;;
36629;SDS011;36256;42.154;23.002;2023-04-24T23:40:12;8.23;;;5.10;;
36629;SDS011;36256;42.154;23.002;2023-04-24T23:42:38;7.00;;;5.35;;
36629;SDS011;36256;42.154;23.002;2023-04-24T23:45:05;6.53;;;5.10;;
36629;SDS011;36256;42.154;23.002;2023-04-24T23:47:33;6.05;;;4.90;;
36629;SDS011;36256;42.154;23.002;2023-04-24T23:49:59;5.80;;;4.43;;
36629;SDS011;36256;42.154;23.002;2023-04-24T23:52:26;6.20;;;4.75;;
36629;SDS011;36256;42.154;23.002;2023-04-24T23:54:53;6.10;;;4.47;;
36629;SDS011;36256;42.154;23.002;2023-04-24T23:57:19;5.57;;;4.40;;
36629;SDS011;36256;42.154;23.002;2023-04-24T23:59:47;6.45;;;4.45;;
